Time;durP1;ratioP1;P1;durP2;ratioP2;P2;SDS_P1;SDS_P2;PMS_P1;PMS_P2;Temp;Humidity;BMP_temperature;BMP_pressure;BME280_temperature;BME280_humidity;BME280_pressure;Samples;Min_cycle;Max_cycle;Signal;HPM_P1;HPM_P2
2023/07/30 00:03:45;;;;;;;3.47;2.67;;;18.10;1.00;;;;;;10560271;28;20265;-79
2023/07/30 00:09:07;;;;;;;2.88;2.55;;;18.10;1.00;;;;;;10560320;28;20221;-80
2023/07/30 00:14:28;;;;;;;2.42;2.22;;;18.00;1.00;;;;;;10527203;28;20213;-80
2023/07/30 00:19:49;;;;;;;3.60;3.30;;;17.90;1.00;;;;;;10539981;28;20297;-80
2023/07/30 00:25:11;;;;;;;3.22;2.45;;;18.00;1.00;;;;;;10545326;28;20267;-81
2023/07/30 00:30:32;;;;;;;4.35;3.30;;;17.90;1.00;;;;;;10518844;28;20525;-80
2023/07/30 00:35:54;;;;;;;3.00;2.67;;;17.90;1.00;;;;;;10525347;28;20304;-80
2023/07/30 00:41:15;;;;;;;3.70;2.70;;;17.90;1.00;;;;;;10520869;28;20206;-80
2023/07/30 00:46:36;;;;;;;4.35;2.58;;;17.80;1.00;;;;;;10560166;28;20193;-80
2023/07/30 00:51:58;;;;;;;3.05;2.67;;;17.80;1.80;;;;;;10555338;28;20266;-79
2023/07/30 00:57:20;;;;;;;2.85;2.58;;;17.80;8.00;;;;;;10548577;28;20376;-79
2023/07/30 01:02:41;;;;;;;3.45;2.63;;;17.70;1.00;;;;;;10559258;28;20192;-80
2023/07/30 01:08:03;;;;;;;4.38;2.60;;;17.70;1.00;;;;;;10553346;28;20199;-80
2023/07/30 01:13:25;;;;;;;4.45;2.30;;;17.70;1.00;;;;;;10558146;28;20193;-80
2023/07/30 01:18:47;;;;;;;3.85;2.70;;;17.70;1.00;;;;;;10544773;28;20377;-78
2023/07/30 01:24:08;;;;;;;2.90;2.70;;;17.60;1.00;;;;;;10525112;28;20485;-79
2023/07/30 01:29:54;;;;;;;3.58;3.05;;;17.60;1.00;;;;;;10543866;28;20225;-79
2023/07/30 01:35:18;;;;;;;3.38;3.08;;;17.60;1.00;;;;;;10559910;28;20239;-80
2023/07/30 01:40:40;;;;;;;4.15;3.10;;;17.60;1.00;;;;;;10529227;28;20367;-79
2023/07/30 01:46:01;;;;;;;3.78;3.08;;;17.60;1.00;;;;;;10551554;28;20229;-81
2023/07/30 01:51:23;;;;;;;3.67;2.83;;;17.50;1.00;;;;;;10565477;28;20476;-79
2023/07/30 01:56:44;;;;;;;4.65;3.35;;;17.50;1.00;;;;;;10523533;28;20489;-78
2023/07/30 02:02:06;;;;;;;4.40;3.00;;;17.50;1.00;;;;;;10565475;28;20197;-79
2023/07/30 02:07:28;;;;;;;6.18;3.50;;;17.50;1.00;;;;;;10534787;28;20233;-79
2023/07/30 02:12:49;;;;;;;4.35;3.40;;;17.50;1.80;;;;;;10522467;28;20238;-79
2023/07/30 02:18:10;;;;;;;4.05;3.00;;;17.50;2.90;;;;;;10545172;28;20197;-79
2023/07/30 02:23:32;;;;;;;3.30;3.00;;;17.40;1.00;;;;;;10548090;28;20560;-81
2023/07/30 02:28:53;;;;;;;4.13;2.95;;;17.40;1.00;;;;;;10565168;28;20576;-79
2023/07/30 02:34:14;;;;;;;3.67;3.10;;;17.30;1.00;;;;;;10563884;28;20229;-78
2023/07/30 02:39:37;;;;;;;6.22;3.78;;;17.20;4.90;;;;;;10530472;28;20496;-78
2023/07/30 02:44:59;;;;;;;4.50;3.60;;;17.20;28.80;;;;;;10507146;28;20274;-78
2023/07/30 02:50:20;;;;;;;6.25;4.30;;;17.10;28.40;;;;;;10521275;28;20226;-78
2023/07/30 02:55:41;;;;;;;5.22;4.20;;;17.10;20.40;;;;;;10548371;28;20204;-79
2023/07/30 03:01:07;;;;;;;7.07;5.57;;;17.00;52.90;;;;;;10548681;28;20499;-78
2023/07/30 03:06:29;;;;;;;6.00;5.18;;;17.10;99.90;;;;;;10543594;28;20432;-79
2023/07/30 03:11:51;;;;;;;7.40;5.95;;;17.10;99.90;;;;;;10525744;28;20229;-79
2023/07/30 03:17:13;;;;;;;8.57;6.88;;;17.10;95.30;;;;;;10506645;28;20221;-79
2023/07/30 03:22:34;;;;;;;7.60;6.22;;;17.20;90.00;;;;;;10542456;28;20232;-79
2023/07/30 03:27:55;;;;;;;9.05;5.90;;;17.20;78.90;;;;;;10559932;28;20246;-79
2023/07/30 03:33:17;;;;;;;9.57;6.28;;;17.20;99.90;;;;;;10527671;28;20395;-80
2023/07/30 03:38:39;;;;;;;10.50;7.13;;;17.30;99.90;;;;;;10519115;28;20214;-79
2023/07/30 03:44:00;;;;;;;8.85;6.50;;;17.30;99.90;;;;;;10520824;28;20537;-79
2023/07/30 03:49:21;;;;;;;9.43;7.35;;;17.40;99.90;;;;;;10562193;28;20247;-79
2023/07/30 03:54:42;;;;;;;8.43;7.28;;;17.40;99.90;;;;;;10555130;28;20190;-80
2023/07/30 04:00:07;;;;;;;8.75;7.35;;;17.40;99.90;;;;;;10543717;28;20544;-79
2023/07/30 04:05:34;;;;;;;8.48;6.90;;;17.50;99.90;;;;;;10561758;28;20212;-79
2023/07/30 04:10:56;;;;;;;8.90;7.55;;;17.60;99.90;;;;;;10533649;28;20297;-80
2023/07/30 04:16:17;;;;;;;10.10;7.13;;;17.70;99.90;;;;;;10524129;28;20277;-80
2023/07/30 04:21:39;;;;;;;13.10;8.27;;;17.70;97.50;;;;;;10560909;28;20236;-80
2023/07/30 04:27:01;;;;;;;10.27;7.85;;;17.80;91.90;;;;;;10535015;28;20210;-80
2023/07/30 04:32:23;;;;;;;10.60;8.40;;;17.90;96.20;;;;;;10503550;28;20414;-80
2023/07/30 04:37:44;;;;;;;9.85;8.60;;;17.90;71.20;;;;;;10519420;28;20457;-79
2023/07/30 04:43:07;;;;;;;17.38;9.07;;;17.90;91.30;;;;;;10505401;28;20340;-79
2023/07/30 04:48:30;;;;;;;13.45;9.57;;;18.10;82.00;;;;;;10544803;28;20489;-79
2023/07/30 04:53:51;;;;;;;15.93;10.90;;;18.10;82.40;;;;;;10559321;28;20191;-79
2023/07/30 04:59:12;;;;;;;13.50;10.32;;;18.10;58.40;;;;;;10500947;28;20209;-80
2023/07/30 05:04:34;;;;;;;19.20;12.35;;;18.10;39.20;;;;;;10513292;28;20199;-81
2023/07/30 05:09:55;;;;;;;16.27;12.93;;;18.00;42.20;;;;;;10529195;28;20226;-79
2023/07/30 05:15:16;;;;;;;14.73;11.13;;;18.00;54.80;;;;;;10557458;28;20207;-79
2023/07/30 05:20:38;;;;;;;18.75;12.40;;;18.10;75.40;;;;;;10526004;28;20202;-79
2023/07/30 05:25:59;;;;;;;17.25;11.77;;;18.20;29.80;;;;;;10510864;28;20497;-80
2023/07/30 05:31:20;;;;;;;14.55;10.32;;;18.20;25.20;;;;;;10566977;28;20218;-81
2023/07/30 05:36:41;;;;;;;16.65;11.63;;;18.30;19.50;;;;;;10555828;28;20237;-80
2023/07/30 05:42:03;;;;;;;12.65;11.23;;;18.30;1.00;;;;;;10512997;28;20249;-80
2023/07/30 05:47:24;;;;;;;12.95;10.65;;;18.40;1.00;;;;;;10543163;28;20194;-80
2023/07/30 05:52:45;;;;;;;16.77;11.98;;;18.40;1.00;;;;;;10550900;28;20317;-78
2023/07/30 05:58:06;;;;;;;13.40;10.27;;;18.40;1.00;;;;;;10563592;28;20190;-80
2023/07/30 06:03:28;;;;;;;12.82;10.23;;;18.40;1.00;;;;;;10535636;28;20382;-80
2023/07/30 06:08:49;;;;;;;14.50;10.10;;;18.60;1.00;;;;;;10543105;28;20202;-80
2023/07/30 06:14:11;;;;;;;17.30;9.90;;;18.70;1.00;;;;;;10523353;28;20215;-80
2023/07/30 06:19:32;;;;;;;12.07;8.82;;;18.80;1.00;;;;;;10549864;28;20410;-81
2023/07/30 06:24:53;;;;;;;12.18;8.98;;;18.90;1.00;;;;;;10550159;28;20205;-80
2023/07/30 06:30:15;;;;;;;12.63;8.60;;;19.20;1.00;;;;;;10564084;28;20225;-80
2023/07/30 06:35:36;;;;;;;10.57;8.25;;;20.00;99.90;;;;;;10558500;28;20226;-80
2023/07/30 06:40:58;;;;;;;12.45;8.45;;;20.10;99.90;;;;;;10529187;28;20203;-80
2023/07/30 06:46:19;;;;;;;8.73;6.03;;;20.20;99.90;;;;;;10507233;28;20203;-81
2023/07/30 06:51:40;;;;;;;6.85;5.97;;;20.00;99.90;;;;;;10544190;28;20221;-81
2023/07/30 06:57:02;;;;;;;6.63;5.93;;;19.80;1.00;;;;;;10563125;28;20195;-79
2023/07/30 07:02:24;;;;;;;7.75;5.05;;;19.90;99.90;;;;;;10562690;28;20224;-80
2023/07/30 07:07:45;;;;;;;9.30;5.68;;;20.00;1.00;;;;;;10557706;28;20452;-80
2023/07/30 07:13:06;;;;;;;8.55;5.82;;;20.60;99.90;;;;;;10510570;28;20242;-81
2023/07/30 07:18:28;;;;;;;5.68;5.00;;;21.00;1.00;;;;;;10543258;28;20216;-81
2023/07/30 07:23:49;;;;;;;6.78;4.03;;;21.30;1.00;;;;;;10562502;28;20186;-81
2023/07/30 07:29:11;;;;;;;5.85;4.43;;;21.50;26.80;;;;;;10561743;28;20524;-81
2023/07/30 07:34:32;;;;;;;4.25;3.85;;;21.50;1.00;;;;;;10557326;28;20301;-79
2023/07/30 07:39:53;;;;;;;9.82;4.15;;;21.80;99.90;;;;;;10535787;28;20222;-80
2023/07/30 07:45:15;;;;;;;4.88;3.10;;;22.40;1.00;;;;;;10505195;28;20561;-81
2023/07/30 07:50:36;;;;;;;6.55;3.45;;;23.00;99.90;;;;;;10535539;28;20253;-81
2023/07/30 07:55:58;;;;;;;6.15;3.63;;;23.70;99.90;;;;;;10546386;28;20343;-80
2023/07/30 08:01:19;;;;;;;4.18;2.97;;;24.00;1.00;;;;;;10504602;28;20203;-79
2023/07/30 08:06:40;;;;;;;6.47;3.17;;;24.60;1.00;;;;;;10524130;28;20249;-79
2023/07/30 08:12:02;;;;;;;4.40;2.78;;;24.50;1.00;;;;;;10518313;28;20524;-78
2023/07/30 08:17:23;;;;;;;3.90;2.70;;;24.10;1.00;;;;;;10532804;28;20544;-80
2023/07/30 08:22:45;;;;;;;4.32;2.65;;;23.70;1.00;;;;;;10518220;28;20210;-80
2023/07/30 08:28:06;;;;;;;6.50;2.50;;;23.40;1.00;;;;;;10517888;28;20251;-79
2023/07/30 08:33:29;;;;;;;2.83;2.30;;;24.10;1.00;;;;;;10531042;28;20548;-80
2023/07/30 08:38:50;;;;;;;4.85;2.47;;;24.90;1.00;;;;;;10528296;28;20293;-81
2023/07/30 08:44:12;;;;;;;3.97;2.40;;;25.60;1.00;;;;;;10488628;28;20198;-80
2023/07/30 08:49:34;;;;;;;2.80;2.30;;;25.40;1.00;;;;;;10539066;28;20313;-80
2023/07/30 08:54:58;;;;;;;2.70;1.88;;;24.70;1.00;;;;;;10513870;28;20208;-80
2023/07/30 09:00:21;;;;;;;2.60;2.03;;;24.40;1.00;;;;;;10544791;28;20232;-79
2023/07/30 09:05:43;;;;;;;3.55;2.30;;;24.20;1.00;;;;;;10514090;28;20214;-81
2023/07/30 09:11:11;;;;;;;4.65;2.30;;;25.30;1.00;;;;;;10516801;28;20289;-80
2023/07/30 09:16:32;;;;;;;4.38;2.42;;;25.70;1.00;;;;;;10525263;28;20225;-80
2023/07/30 09:21:54;;;;;;;3.60;1.98;;;26.30;1.00;;;;;;10553810;28;20576;-81
2023/07/30 09:27:25;;;;;;;5.43;2.30;;;27.40;1.00;;;;;;10559454;28;20481;-80
2023/07/30 09:32:46;;;;;;;3.65;1.80;;;28.10;99.90;;;;;;10553309;28;20266;-79
2023/07/30 09:38:07;;;;;;;2.55;1.83;;;28.60;99.90;;;;;;10547607;28;20504;-80
2023/07/30 09:43:32;;;;;;;4.97;2.65;;;28.10;99.90;;;;;;10488061;28;20207;-80
2023/07/30 09:48:53;;;;;;;4.90;2.50;;;26.70;99.90;;;;;;10532270;28;20213;-80
2023/07/30 09:54:15;;;;;;;2.50;2.30;;;26.40;99.90;;;;;;10558324;28;20203;-81
2023/07/30 09:59:38;;;;;;;4.38;2.30;;;25.70;99.90;;;;;;10566451;28;20195;-80
2023/07/30 10:05:07;;;;;;;6.72;1.98;;;25.90;99.90;;;;;;10573474;28;20190;-81
2023/07/30 10:10:30;;;;;;;2.78;2.50;;;25.70;1.00;;;;;;10550631;28;20581;-81
2023/07/30 10:15:52;;;;;;;4.30;2.38;;;25.50;1.00;;;;;;10550584;28;20186;-79
2023/07/30 10:21:23;;;;;;;6.35;2.63;;;25.20;1.00;;;;;;10522929;28;20278;-79
2023/07/30 10:26:44;;;;;;;3.65;2.40;;;25.00;1.00;;;;;;10523463;28;20187;-81
2023/07/30 10:32:06;;;;;;;2.20;1.85;;;24.90;1.00;;;;;;10514991;28;20234;-80
2023/07/30 10:37:27;;;;;;;2.70;1.92;;;24.80;1.00;;;;;;10558271;28;20272;-80
2023/07/30 10:42:49;;;;;;;3.97;2.47;;;25.50;1.00;;;;;;10507548;28;20195;-79
2023/07/30 10:48:10;;;;;;;3.63;2.33;;;26.20;1.00;;;;;;10526271;28;20554;-81
2023/07/30 10:53:32;;;;;;;3.75;2.60;;;27.10;99.90;;;;;;10548701;28;20623;-80
2023/07/30 10:58:54;;;;;;;3.88;2.35;;;26.80;99.90;;;;;;10563052;28;20190;-80
2023/07/30 11:04:19;;;;;;;1.95;1.85;;;26.40;99.90;;;;;;10524964;28;20214;-81
2023/07/30 11:09:40;;;;;;;3.13;2.20;;;26.30;99.90;;;;;;10521372;28;20207;-81
2023/07/30 11:15:05;;;;;;;2.40;2.20;;;25.90;99.90;;;;;;10520582;28;20260;-79
2023/07/30 11:20:27;;;;;;;3.33;2.13;;;25.90;99.90;;;;;;10523573;28;20199;-80
2023/07/30 11:25:51;;;;;;;2.70;2.50;;;25.60;99.90;;;;;;10519807;28;20203;-80
2023/07/30 11:31:19;;;;;;;2.70;2.20;;;25.40;99.90;;;;;;10505358;28;20227;-81
2023/07/30 11:36:42;;;;;;;3.35;2.00;;;25.30;99.90;;;;;;10561328;28;20635;-81
2023/07/30 11:42:03;;;;;;;4.95;1.90;;;26.40;99.90;;;;;;10519436;28;20214;-79
2023/07/30 11:47:25;;;;;;;2.47;1.90;;;26.40;99.90;;;;;;10517299;28;20247;-81
2023/07/30 11:52:54;;;;;;;2.45;1.75;;;26.20;99.90;;;;;;10562394;28;20241;-81
2023/07/30 11:58:15;;;;;;;1.80;1.70;;;25.80;99.90;;;;;;10568570;28;20451;-80
2023/07/30 12:03:37;;;;;;;2.22;1.92;;;25.70;99.90;;;;;;10568811;28;20198;-80
2023/07/30 12:08:59;;;;;;;2.42;1.90;;;25.40;99.90;;;;;;10560303;28;20373;-80
2023/07/30 12:14:32;;;;;;;3.15;2.05;;;25.50;99.90;;;;;;10560274;28;20440;-80
2023/07/30 12:19:53;;;;;;;4.45;2.38;;;25.40;99.90;;;;;;10519634;28;20241;-81
2023/07/30 12:25:15;;;;;;;2.08;1.60;;;25.50;99.90;;;;;;10520328;28;20230;-81
2023/07/30 12:30:37;;;;;;;2.08;1.80;;;26.30;99.90;;;;;;10521936;28;20514;-81
2023/07/30 12:35:58;;;;;;;2.45;2.00;;;26.70;99.90;;;;;;10560670;28;20237;-80
2023/07/30 12:41:25;;;;;;;2.28;1.80;;;26.20;99.90;;;;;;10523061;28;20237;-81
2023/07/30 12:46:48;;;;;;;2.10;1.90;;;25.80;99.90;;;;;;10547227;28;20287;-81
2023/07/30 12:52:09;;;;;;;3.00;1.70;;;25.40;99.90;;;;;;10559901;28;20210;-80
2023/07/30 12:57:31;;;;;;;10.77;2.53;;;25.40;99.90;;;;;;10560933;28;20190;-81
2023/07/30 13:02:55;;;;;;;2.53;2.10;;;26.20;99.90;;;;;;10554383;28;20221;-81
2023/07/30 13:08:16;;;;;;;2.03;1.80;;;26.70;99.90;;;;;;10561247;28;20269;-80
2023/07/30 13:13:38;;;;;;;3.08;1.67;;;26.60;99.90;;;;;;10537319;28;20210;-80
2023/07/30 13:18:59;;;;;;;1.85;1.60;;;27.00;99.90;;;;;;10531332;28;20499;-80
2023/07/30 13:24:21;;;;;;;4.18;1.63;;;27.40;99.90;;;;;;10530143;28;20196;-81
2023/07/30 13:29:42;;;;;;;1.27;1.17;;;27.30;99.90;;;;;;10541824;28;20512;-80
2023/07/30 13:35:04;;;;;;;1.73;1.63;;;27.10;99.90;;;;;;10565902;28;20222;-80
2023/07/30 13:40:25;;;;;;;3.17;1.83;;;26.90;99.90;;;;;;10537087;28;20205;-79
2023/07/30 13:45:50;;;;;;;2.35;2.13;;;26.90;99.90;;;;;;10552973;28;20225;-81
2023/07/30 13:51:11;;;;;;;2.97;1.60;;;26.40;99.90;;;;;;10551348;28;20241;-80
2023/07/30 13:56:32;;;;;;;1.70;1.60;;;26.70;99.90;;;;;;10565478;28;20194;-80
2023/07/30 14:01:53;;;;;;;1.90;1.77;;;27.10;99.90;;;;;;10524558;28;20203;-80
2023/07/30 14:07:15;;;;;;;1.63;1.45;;;27.10;99.90;;;;;;10515002;28;20202;-80
2023/07/30 14:12:36;;;;;;;2.50;1.70;;;27.00;99.90;;;;;;10528044;28;20213;-79
2023/07/30 14:17:58;;;;;;;2.17;1.70;;;26.70;99.90;;;;;;10550693;28;20232;-79
2023/07/30 14:23:19;;;;;;;4.28;1.92;;;26.40;99.90;;;;;;10565905;28;20265;-80
2023/07/30 14:28:40;;;;;;;5.90;1.70;;;26.10;99.90;;;;;;10547638;28;20199;-79
2023/07/30 14:34:01;;;;;;;1.70;1.60;;;25.90;99.90;;;;;;10522066;28;20303;-81
2023/07/30 14:39:22;;;;;;;1.60;1.50;;;26.00;99.90;;;;;;10531760;28;20286;-80
2023/07/30 14:44:44;;;;;;;3.00;1.90;;;26.00;99.90;;;;;;10535355;28;20390;-79
2023/07/30 14:50:06;;;;;;;2.97;2.08;;;25.80;99.90;;;;;;10564939;28;20210;-80
2023/07/30 14:55:27;;;;;;;1.90;1.77;;;25.60;99.90;;;;;;10549627;28;20206;-78
2023/07/30 15:00:49;;;;;;;3.35;1.55;;;25.40;99.90;;;;;;10533400;28;20492;-80
2023/07/30 15:06:10;;;;;;;1.85;1.67;;;25.30;99.90;;;;;;10563150;28;20202;-79
2023/07/30 15:11:31;;;;;;;1.55;1.42;;;25.10;99.90;;;;;;10546927;28;20566;-79
2023/07/30 15:16:53;;;;;;;1.73;1.63;;;25.00;99.90;;;;;;10548061;28;20232;-79
2023/07/30 15:22:14;;;;;;;1.50;1.40;;;24.90;99.90;;;;;;10534235;28;20195;-80
2023/07/30 15:27:36;;;;;;;2.75;1.70;;;24.70;99.90;;;;;;10542639;28;20214;-81
2023/07/30 15:32:58;;;;;;;8.80;1.77;;;24.50;99.90;;;;;;10562320;28;20222;-81
2023/07/30 15:38:19;;;;;;;1.90;1.70;;;24.00;99.90;;;;;;10550653;28;20194;-81
2023/07/30 15:43:40;;;;;;;4.72;1.63;;;22.60;99.90;;;;;;10543710;28;20230;-81
2023/07/30 15:49:01;;;;;;;3.40;1.50;;;;;;;;;;10561620;28;20258;-81
2023/07/30 15:54:33;;;;;;;3.10;1.73;;;20.70;1.00;;;;;;10531753;28;20311;-81
2023/07/30 15:59:55;;;;;;;2.97;1.67;;;20.30;1.00;;;;;;10528065;28;20227;-79
2023/07/30 16:05:16;;;;;;;4.53;1.83;;;20.30;99.90;;;;;;10518760;28;20209;-80
2023/07/30 16:10:38;;;;;;;4.10;1.95;;;20.40;99.90;;;;;;10521362;28;20222;-81
2023/07/30 16:16:13;;;;;;;4.55;1.55;;;20.60;1.00;;;;;;10546360;28;20368;-81
2023/07/30 16:21:35;;;;;;;2.45;1.38;;;20.90;99.90;;;;;;10558211;28;20199;-81
2023/07/30 16:26:56;;;;;;;1.92;1.50;;;21.10;1.00;;;;;;10545591;28;20202;-81
2023/07/30 16:32:18;;;;;;;2.40;1.88;;;21.20;1.00;;;;;;10544465;28;20222;-82
2023/07/30 16:37:39;;;;;;;2.65;1.50;;;21.10;1.00;;;;;;10533750;28;20252;-80
2023/07/30 16:43:01;;;;;;;1.80;1.50;;;21.10;1.00;;;;;;10503668;28;20199;-81
2023/07/30 16:48:22;;;;;;;1.88;1.55;;;21.10;1.00;;;;;;10503451;28;20260;-78
2023/07/30 16:53:44;;;;;;;2.78;1.73;;;21.10;99.90;;;;;;10557342;28;20230;-80
2023/07/30 16:59:05;;;;;;;2.95;2.13;;;21.10;99.90;;;;;;10552887;28;20191;-81
2023/07/30 17:04:26;;;;;;;6.03;2.10;;;21.00;1.00;;;;;;10557109;28;20202;-80
2023/07/30 17:09:48;;;;;;;2.03;1.75;;;21.00;1.00;;;;;;10567783;28;20509;-80
2023/07/30 17:15:10;;;;;;;3.30;1.80;;;21.00;1.00;;;;;;10567596;28;20240;-81
2023/07/30 17:20:32;;;;;;;2.88;2.30;;;21.00;1.00;;;;;;10540595;28;20381;-81
2023/07/30 17:25:56;;;;;;;2.63;2.30;;;20.90;1.00;;;;;;10567012;28;20190;-80
2023/07/30 17:31:17;;;;;;;2.33;1.90;;;20.80;1.00;;;;;;10552643;28;20267;-81
2023/07/30 17:36:39;;;;;;;3.72;2.40;;;20.80;1.00;;;;;;10565338;28;20234;-81
2023/07/30 17:42:00;;;;;;;6.20;2.10;;;20.60;99.90;;;;;;10527503;28;20195;-80
2023/07/30 17:47:21;;;;;;;2.42;2.15;;;20.50;1.00;;;;;;10496329;28;20278;-82
2023/07/30 17:52:43;;;;;;;4.00;2.78;;;20.40;1.00;;;;;;10562267;28;20245;-81
2023/07/30 17:58:04;;;;;;;3.45;2.47;;;20.30;99.90;;;;;;10533287;28;20210;-82
2023/07/30 18:03:25;;;;;;;3.83;2.60;;;20.10;1.00;;;;;;10527430;28;20198;-81
2023/07/30 18:08:46;;;;;;;7.95;3.65;;;20.00;1.00;;;;;;10523682;28;20471;-81
2023/07/30 18:14:08;;;;;;;6.88;4.00;;;19.90;1.00;;;;;;10509003;28;20521;-80
2023/07/30 18:19:30;;;;;;;5.95;4.10;;;19.90;1.00;;;;;;10516987;28;20199;-81
2023/07/30 18:24:51;;;;;;;5.43;3.92;;;19.90;99.90;;;;;;10523263;28;20191;-81
2023/07/30 18:30:12;;;;;;;5.15;3.40;;;19.80;99.90;;;;;;10508730;28;20233;-81
2023/07/30 18:35:34;;;;;;;3.63;2.58;;;19.80;1.00;;;;;;10548268;28;20230;-80
2023/07/30 18:40:55;;;;;;;3.58;2.58;;;19.70;99.90;;;;;;10515995;28;20199;-81
2023/07/30 18:46:17;;;;;;;5.13;2.90;;;19.70;25.70;;;;;;10523565;28;20195;-80
2023/07/30 18:51:38;;;;;;;4.10;3.53;;;19.60;1.00;;;;;;10562285;28;20247;-82
2023/07/30 18:57:00;;;;;;;5.25;3.30;;;19.60;1.00;;;;;;10564761;28;20195;-81
2023/07/30 19:02:21;;;;;;;5.63;3.42;;;19.50;1.00;;;;;;10543689;28;20522;-81
2023/07/30 19:07:42;;;;;;;5.07;4.57;;;19.40;1.00;;;;;;10563534;28;20194;-82
2023/07/30 19:13:04;;;;;;;9.30;6.28;;;19.30;1.00;;;;;;10562816;28;20634;-81
2023/07/30 19:18:26;;;;;;;10.07;7.18;;;19.20;99.90;;;;;;10528196;28;20203;-82
2023/07/30 19:23:47;;;;;;;16.92;11.13;;;19.10;99.90;;;;;;10506318;28;20210;-81
2023/07/30 19:29:08;;;;;;;11.63;8.38;;;19.00;1.00;;;;;;10506513;28;20187;-80
2023/07/30 19:34:29;;;;;;;9.07;5.97;;;19.00;1.00;;;;;;10545081;28;20230;-80
2023/07/30 19:39:51;;;;;;;7.25;5.55;;;18.90;1.00;;;;;;10536778;28;20486;-81
2023/07/30 19:45:12;;;;;;;16.90;9.00;;;18.80;1.00;;;;;;10519671;28;20277;-80
2023/07/30 19:50:34;;;;;;;14.70;9.13;;;18.80;1.00;;;;;;10556256;28;20554;-81
2023/07/30 19:55:56;;;;;;;15.77;10.75;;;18.70;1.00;;;;;;10538292;28;20191;-79
2023/07/30 20:01:17;;;;;;;14.80;9.45;;;18.60;1.00;;;;;;10521423;28;20598;-81
2023/07/30 20:06:40;;;;;;;12.30;8.75;;;18.50;1.00;;;;;;10546449;28;20198;-80
2023/07/30 20:12:02;;;;;;;10.82;6.88;;;18.40;1.00;;;;;;10561054;28;20245;-81
2023/07/30 20:17:23;;;;;;;7.55;4.55;;;18.40;1.00;;;;;;10554590;28;20194;-81
2023/07/30 20:22:45;;;;;;;5.90;4.63;;;18.40;1.00;;;;;;10528493;28;20198;-81
2023/07/30 20:28:07;;;;;;;5.47;3.90;;;18.40;1.00;;;;;;10560263;28;20269;-81
2023/07/30 20:33:29;;;;;;;4.82;3.78;;;18.40;1.00;;;;;;10536633;28;20248;-81
2023/07/30 20:38:50;;;;;;;5.38;4.43;;;18.30;1.00;;;;;;10519920;28;20199;-81
2023/07/30 20:44:11;;;;;;;6.95;5.07;;;18.30;1.00;;;;;;10489674;28;20206;-82
2023/07/30 20:49:33;;;;;;;8.25;4.97;;;18.30;1.00;;;;;;10554401;28;20222;-81
2023/07/30 20:54:55;;;;;;;5.95;4.55;;;18.30;1.00;;;;;;10496401;28;20229;-81
2023/07/30 21:00:16;;;;;;;6.45;4.60;;;18.20;1.00;;;;;;10540011;28;20202;-82
2023/07/30 21:05:37;;;;;;;6.82;4.63;;;18.10;1.00;;;;;;10559129;28;20198;-81
2023/07/30 21:10:59;;;;;;;6.68;4.72;;;18.00;1.00;;;;;;10560263;28;20282;-81
2023/07/30 21:16:20;;;;;;;7.13;4.60;;;17.90;1.00;;;;;;10525257;28;20201;-81
2023/07/30 21:21:42;;;;;;;5.18;4.07;;;17.80;1.00;;;;;;10558869;28;20252;-80
2023/07/30 21:27:03;;;;;;;5.22;4.00;;;17.80;1.00;;;;;;10559895;28;20191;-79
2023/07/30 21:32:25;;;;;;;4.97;4.07;;;17.70;1.00;;;;;;10556980;28;20252;-81
2023/07/30 21:37:46;;;;;;;5.22;4.25;;;17.70;1.00;;;;;;10536610;28;20432;-80
2023/07/30 21:43:08;;;;;;;4.20;3.55;;;17.70;1.00;;;;;;10530959;28;20199;-80
2023/07/30 21:48:29;;;;;;;5.50;3.38;;;17.70;1.00;;;;;;10510644;28;20214;-80
2023/07/30 21:53:50;;;;;;;5.85;4.38;;;17.70;1.00;;;;;;10524244;28;20226;-79
2023/07/30 21:59:12;;;;;;;8.52;4.88;;;17.80;1.00;;;;;;10544648;28;20216;-80
2023/07/30 22:04:33;;;;;;;5.43;4.40;;;17.80;1.00;;;;;;10566273;28;20291;-80
2023/07/30 22:09:55;;;;;;;5.63;4.40;;;17.80;1.00;;;;;;10565653;28;20497;-81
2023/07/30 22:15:16;;;;;;;3.45;3.15;;;17.90;1.00;;;;;;10545457;28;20312;-81
2023/07/30 22:20:38;;;;;;;4.80;3.75;;;17.90;1.00;;;;;;10536913;28;20194;-80
2023/07/30 22:25:59;;;;;;;4.15;3.15;;;17.80;1.00;;;;;;10536647;28;20474;-80
2023/07/30 22:31:38;;;;;;;4.50;3.75;;;17.90;1.00;;;;;;10507668;28;20222;-81
2023/07/30 22:36:59;;;;;;;4.07;3.67;;;17.80;1.00;;;;;;10524021;28;20242;-80
2023/07/30 22:42:21;;;;;;;6.35;3.97;;;17.90;1.00;;;;;;10508126;28;20269;-81
2023/07/30 22:47:42;;;;;;;8.38;3.65;;;17.90;1.00;;;;;;10546473;28;20289;-79
2023/07/30 22:53:03;;;;;;;5.22;3.95;;;17.80;1.00;;;;;;10549863;28;20237;-80
2023/07/30 22:58:24;;;;;;;11.25;4.32;;;17.70;1.00;;;;;;10558171;28;20207;-81
2023/07/30 23:03:46;;;;;;;5.85;3.80;;;17.70;1.00;;;;;;10506726;28;20206;-81
2023/07/30 23:09:08;;;;;;;6.35;3.53;;;17.80;1.00;;;;;;10521524;28;20248;-81
2023/07/30 23:14:30;;;;;;;4.07;2.33;;;17.80;1.00;;;;;;10540582;28;20236;-80
2023/07/30 23:19:51;;;;;;;8.98;2.72;;;17.70;1.00;;;;;;10534672;28;20204;-81
2023/07/30 23:25:12;;;;;;;2.47;2.05;;;17.50;99.90;;;;;;10548993;28;20545;-80
2023/07/30 23:30:34;;;;;;;3.30;2.38;;;17.50;99.90;;;;;;10557570;28;20196;-82
2023/07/30 23:35:56;;;;;;;2.67;1.90;;;17.50;1.00;;;;;;10563229;28;20278;-81
2023/07/30 23:41:17;;;;;;;3.60;2.17;;;17.40;99.90;;;;;;10510702;28;20209;-81
2023/07/30 23:46:38;;;;;;;2.13;1.80;;;17.40;37.60;;;;;;10523408;28;20213;-81
2023/07/30 23:51:59;;;;;;;2.33;1.60;;;17.30;16.20;;;;;;10491763;28;20305;-80
2023/07/30 23:57:20;;;;;;;2.83;1.80;;;17.20;91.50;;;;;;10532545;28;20499;-79
